createdAt,value
2017-11-14T00:00:23.777Z,79.49
2017-11-14T00:01:23.812Z,79.11
2017-11-14T00:03:16.788Z,79.49
2017-11-14T00:04:16.845Z,80.34
2017-11-14T00:06:09.845Z,80.44
2017-11-14T00:07:09.882Z,80.06
2017-11-14T00:09:02.865Z,80.25
2017-11-14T00:10:02.922Z,80.06
2017-11-14T00:11:55.920Z,80.44
2017-11-14T00:12:55.952Z,79.39
2017-11-14T00:14:48.950Z,79.77
2017-11-14T00:15:48.984Z,79.68
2017-11-14T00:17:41.961Z,78.92
2017-11-14T00:18:42.018Z,78.83
2017-11-14T00:20:35.014Z,79.30
2017-11-14T00:21:35.049Z,78.73
2017-11-14T00:23:28.024Z,79.02
2017-11-14T00:24:28.081Z,78.54
2017-11-14T00:26:21.078Z,78.26
2017-11-14T00:27:21.113Z,78.54
2017-11-14T00:29:14.088Z,78.16
2017-11-14T00:30:14.146Z,77.78
2017-11-14T00:32:07.144Z,78.07
2017-11-14T00:33:07.179Z,78.16
2017-11-14T00:35:00.178Z,77.78
2017-11-14T00:36:00.216Z,77.78
2017-11-14T00:37:53.200Z,78.26
2017-11-14T00:38:53.249Z,78.16
2017-11-14T00:40:46.245Z,78.54
2017-11-14T00:41:46.281Z,77.88
2017-11-14T00:43:39.255Z,78.07
2017-11-14T00:44:39.313Z,78.16
2017-11-14T00:46:32.309Z,79.11
2017-11-14T00:47:32.343Z,78.07
2017-11-14T00:49:25.332Z,77.22
2017-11-14T00:50:25.377Z,77.22
2017-11-14T00:52:18.372Z,76.55
2017-11-14T00:53:18.412Z,76.46
2017-11-14T00:55:11.405Z,76.08
2017-11-14T00:56:11.442Z,75.51
2017-11-14T00:58:04.423Z,75.13
2017-11-14T00:59:04.478Z,75.13
2017-11-14T01:00:57.473Z,75.23
2017-11-14T01:01:57.509Z,74.66
2017-11-14T01:03:50.489Z,74.56
2017-11-14T01:04:50.540Z,74.95
2017-11-14T01:06:43.548Z,74.09
2017-11-14T01:07:43.580Z,74.18
2017-11-14T01:09:36.555Z,74.56
2017-11-14T01:10:36.612Z,75.13
2017-11-14T01:12:29.606Z,74.95
2017-11-14T01:13:29.643Z,74.95
2017-11-14T01:15:22.637Z,75.42
2017-11-14T01:16:22.673Z,76.17
2017-11-14T01:18:15.649Z,76.93
2017-11-14T01:19:15.709Z,76.74
2017-11-14T01:21:08.702Z,76.08
2017-11-14T01:22:08.738Z,76.36
2017-11-14T01:24:01.714Z,76.55
2017-11-14T01:25:01.770Z,76.46
2017-11-14T01:26:54.767Z,76.17
2017-11-14T01:27:54.803Z,76.36
2017-11-14T01:29:47.787Z,76.46
2017-11-14T01:30:47.845Z,76.93
2017-11-14T01:32:40.845Z,76.93
2017-11-14T01:33:40.880Z,77.03
2017-11-14T01:35:33.881Z,77.78
2017-11-14T01:36:33.917Z,77.31
2017-11-14T01:38:26.891Z,76.74
2017-11-14T01:39:26.948Z,77.03
2017-11-14T01:41:19.944Z,77.40
2017-11-14T01:42:19.988Z,77.12
2017-11-14T01:44:12.963Z,77.22
2017-11-14T01:45:13.018Z,77.12
2017-11-14T01:47:06.018Z,76.74
2017-11-14T01:48:06.053Z,76.36
2017-11-14T01:49:59.035Z,76.55
2017-11-14T01:50:59.090Z,76.74
2017-11-14T01:52:52.089Z,76.17
2017-11-14T01:53:52.124Z,77.03
2017-11-14T01:55:45.117Z,76.27
2017-11-14T01:56:45.154Z,76.27
2017-11-14T01:58:38.129Z,76.36
2017-11-14T01:59:38.184Z,77.40
2017-11-14T02:01:31.186Z,78.73
2017-11-14T02:02:31.218Z,79.58
2017-11-14T02:04:24.194Z,78.73
2017-11-14T02:05:24.250Z,79.30
2017-11-14T02:07:17.246Z,78.35
2017-11-14T02:08:17.280Z,78.16
2017-11-14T02:10:10.257Z,77.31
2017-11-14T02:11:10.313Z,76.93
2017-11-14T02:13:03.308Z,75.04
2017-11-14T02:14:03.342Z,75.23
2017-11-14T02:15:56.341Z,74.56
2017-11-14T02:16:56.377Z,74.09
2017-11-14T02:18:49.362Z,73.43
2017-11-14T02:19:49.408Z,73.71
2017-11-14T02:21:42.403Z,73.33
2017-11-14T02:22:42.439Z,73.14
2017-11-14T02:24:35.415Z,72.38
2017-11-14T02:25:35.470Z,72.48
2017-11-14T02:27:28.463Z,72.67
2017-11-14T02:28:28.501Z,72.29
2017-11-14T02:30:21.476Z,72.67
2017-11-14T02:31:21.534Z,72.48
2017-11-14T02:33:14.528Z,72.29
2017-11-14T02:34:14.566Z,72.57
2017-11-14T02:36:08.071Z,72.48
2017-11-14T02:37:08.113Z,72.29
2017-11-14T02:39:01.079Z,72.67
2017-11-14T02:40:01.136Z,72.86
2017-11-14T02:41:54.133Z,72.86
2017-11-14T02:42:54.166Z,72.96
2017-11-14T02:44:47.145Z,72.86
2017-11-14T02:45:47.199Z,72.96
2017-11-14T02:47:40.193Z,73.43
2017-11-14T02:48:40.240Z,73.52
2017-11-14T02:50:33.205Z,74.56
2017-11-14T02:51:33.263Z,73.90
2017-11-14T02:53:26.258Z,73.80
2017-11-14T02:54:26.294Z,73.71
2017-11-14T02:56:19.297Z,73.52
2017-11-14T02:57:19.331Z,73.33
2017-11-14T02:59:12.321Z,73.43
2017-11-14T03:00:12.369Z,74.09
2017-11-14T03:02:05.366Z,74.37
2017-11-14T03:03:05.403Z,74.47
2017-11-14T03:04:58.395Z,74.37
2017-11-14T03:05:58.433Z,74.66
2017-11-14T03:07:51.429Z,75.32
2017-11-14T03:08:51.465Z,75.13
2017-11-14T03:10:44.440Z,74.56
2017-11-14T03:11:44.495Z,74.95
2017-11-14T03:13:37.491Z,74.95
2017-11-14T03:14:37.526Z,74.47
2017-11-14T03:16:30.524Z,75.32
2017-11-14T03:17:30.560Z,74.85
2017-11-14T03:19:23.545Z,75.42
2017-11-14T03:20:23.600Z,75.04
2017-11-14T03:22:16.598Z,75.13
2017-11-14T03:23:16.633Z,75.79
2017-11-14T03:25:09.611Z,75.32
2017-11-14T03:26:09.667Z,75.42
2017-11-14T03:28:02.663Z,75.70
2017-11-14T03:29:02.698Z,76.08
2017-11-14T03:30:55.675Z,76.17
2017-11-14T03:31:55.736Z,75.98
2017-11-14T03:33:48.730Z,75.60
2017-11-14T03:34:48.762Z,75.13
2017-11-14T03:36:42.269Z,75.51
2017-11-14T03:37:42.302Z,75.60
2017-11-14T03:39:35.285Z,75.60
2017-11-14T03:40:35.336Z,74.85
2017-11-14T03:42:28.333Z,75.51
2017-11-14T03:43:28.366Z,75.42
2017-11-14T03:45:21.352Z,75.51
2017-11-14T03:46:21.403Z,75.32
2017-11-14T03:48:14.399Z,75.13
2017-11-14T03:49:14.436Z,75.13
2017-11-14T03:51:07.419Z,75.60
2017-11-14T03:52:07.471Z,75.60
2017-11-14T03:54:00.467Z,75.32
2017-11-14T03:55:00.504Z,75.89
2017-11-14T03:56:53.504Z,75.89
2017-11-14T03:57:53.536Z,76.55
2017-11-14T03:59:46.512Z,76.65
2017-11-14T04:00:46.576Z,76.84
2017-11-14T04:02:39.562Z,77.03
2017-11-14T04:03:39.599Z,76.93
2017-11-14T04:05:32.575Z,76.84
2017-11-14T04:06:32.631Z,77.03
2017-11-14T04:08:25.626Z,77.59
2017-11-14T04:09:25.672Z,77.69
2017-11-14T04:11:18.646Z,77.40
2017-11-14T04:12:18.693Z,77.31
2017-11-14T04:14:11.690Z,77.50
2017-11-14T04:15:11.726Z,77.59
2017-11-14T04:17:04.727Z,78.35
2017-11-14T04:18:04.758Z,78.64
2017-11-14T04:19:57.740Z,79.21
2017-11-14T04:20:57.794Z,79.02
2017-11-14T04:22:50.795Z,78.73
2017-11-14T04:23:50.831Z,79.30
2017-11-14T04:25:43.805Z,79.64
2017-11-14T04:26:43.861Z,79.55
2017-11-14T04:28:36.856Z,78.88
2017-11-14T04:29:36.892Z,79.36
2017-11-14T04:31:29.869Z,80.77
2017-11-14T04:32:29.925Z,81.63
2017-11-14T04:34:22.920Z,81.92
2017-11-14T04:35:22.955Z,81.92
2017-11-14T04:37:15.958Z,81.44
2017-11-14T04:38:15.986Z,81.53
2017-11-14T04:40:08.960Z,81.72
2017-11-14T04:41:09.020Z,80.96
2017-11-14T04:43:02.022Z,80.40
2017-11-14T04:44:02.056Z,80.11
2017-11-14T04:45:55.040Z,80.02
2017-11-14T04:46:55.085Z,80.68
2017-11-14T04:48:48.079Z,81.15
2017-11-14T04:49:48.159Z,79.36
2017-11-14T04:51:41.087Z,75.38
2017-11-14T04:52:41.144Z,74.43
2017-11-14T04:54:34.141Z,74.05
2017-11-14T04:55:34.174Z,73.39
2017-11-14T04:57:27.176Z,72.44
2017-11-14T04:58:27.209Z,72.16
2017-11-14T05:00:20.185Z,72.92
2017-11-14T05:01:20.240Z,72.44
2017-11-14T05:03:13.235Z,72.53
2017-11-14T05:04:13.269Z,72.25
2017-11-14T05:06:06.251Z,72.63
2017-11-14T05:07:06.309Z,72.34
2017-11-14T05:08:59.304Z,72.73
2017-11-14T05:09:59.340Z,72.63
2017-11-14T05:11:52.320Z,71.50
2017-11-14T05:12:52.370Z,71.21
2017-11-14T05:14:45.365Z,71.40
2017-11-14T05:15:45.399Z,72.16
2017-11-14T05:17:38.401Z,72.16
2017-11-14T05:18:38.434Z,72.34
2017-11-14T05:20:31.408Z,72.16
2017-11-14T05:21:31.464Z,71.59
2017-11-14T05:23:24.458Z,70.74
2017-11-14T05:24:24.493Z,70.17
2017-11-14T05:26:17.469Z,70.83
2017-11-14T05:27:17.526Z,70.55
2017-11-14T05:29:10.520Z,70.07
2017-11-14T05:30:10.557Z,70.83
2017-11-14T05:32:03.532Z,70.36
2017-11-14T05:33:03.586Z,70.07
2017-11-14T05:34:56.592Z,70.17
2017-11-14T05:35:56.618Z,69.98
2017-11-14T05:37:49.613Z,69.60
2017-11-14T05:38:49.648Z,69.98
2017-11-14T05:40:42.636Z,69.70
2017-11-14T05:41:42.682Z,69.32
2017-11-14T05:43:35.681Z,69.32
2017-11-14T05:44:35.712Z,69.70
2017-11-14T05:46:28.689Z,68.94
2017-11-14T05:47:28.744Z,68.37
2017-11-14T05:49:21.741Z,68.84
2017-11-14T05:50:21.775Z,68.94
2017-11-14T05:52:14.750Z,68.27
2017-11-14T05:53:14.805Z,68.65
2017-11-14T05:55:07.803Z,68.75
2017-11-14T05:56:07.837Z,68.84
2017-11-14T05:58:00.875Z,69.70
2017-11-14T05:59:00.882Z,69.13
2017-11-14T06:00:53.854Z,68.56
2017-11-14T06:01:53.903Z,68.46
2017-11-14T06:03:46.905Z,69.03
2017-11-14T06:04:46.943Z,69.03
2017-11-14T06:06:39.916Z,69.79
2017-11-14T06:07:39.972Z,70.36
2017-11-14T06:09:32.965Z,70.45
2017-11-14T06:10:33.000Z,70.26
2017-11-14T06:12:25.974Z,69.79
2017-11-14T06:13:26.030Z,69.98
2017-11-14T06:15:19.025Z,70.17
2017-11-14T06:16:19.060Z,70.26
2017-11-14T06:18:12.057Z,69.79
2017-11-14T06:19:12.092Z,69.35
2017-11-14T06:21:05.067Z,69.54
2017-11-14T06:22:05.121Z,70.20
2017-11-14T06:23:58.118Z,69.45
2017-11-14T06:24:58.150Z,70.20
2017-11-14T06:26:51.122Z,70.01
2017-11-14T06:27:51.179Z,70.39
2017-11-14T06:29:44.178Z,70.58
2017-11-14T06:30:44.215Z,71.62
2017-11-14T06:32:37.188Z,71.72
2017-11-14T06:33:37.244Z,71.34
2017-11-14T06:35:30.282Z,71.15
2017-11-14T06:36:30.287Z,71.44
2017-11-14T06:38:23.269Z,72.10
2017-11-14T06:39:23.304Z,72.29
2017-11-14T06:41:16.285Z,72.86
2017-11-14T06:42:16.334Z,72.77
2017-11-14T06:44:09.339Z,72.86
2017-11-14T06:45:09.365Z,72.86
2017-11-14T06:47:02.342Z,73.71
2017-11-14T06:48:02.394Z,73.61
2017-11-14T06:49:55.395Z,73.99
2017-11-14T06:50:55.427Z,74.47
2017-11-14T06:52:48.413Z,74.56
2017-11-14T06:53:48.464Z,73.99
2017-11-14T06:55:41.462Z,73.61
2017-11-14T06:56:41.498Z,73.61
2017-11-14T06:58:34.495Z,73.80
2017-11-14T06:59:34.535Z,73.43
2017-11-14T07:01:27.504Z,73.52
2017-11-14T07:02:27.561Z,73.80
2017-11-14T07:04:20.561Z,74.47
2017-11-14T07:05:20.595Z,74.37
2017-11-14T07:07:13.570Z,74.56
2017-11-14T07:08:13.626Z,74.28
2017-11-14T07:10:06.619Z,73.75
2017-11-14T07:11:06.655Z,73.75
2017-11-14T07:12:59.629Z,73.75
2017-11-14T07:13:59.684Z,73.84
2017-11-14T07:15:52.683Z,73.56
2017-11-14T07:16:52.719Z,73.84
2017-11-14T07:18:45.716Z,74.51
2017-11-14T07:19:45.750Z,74.41
2017-11-14T07:21:38.724Z,75.36
2017-11-14T07:22:38.786Z,75.36
2017-11-14T07:24:31.776Z,75.74
2017-11-14T07:25:31.810Z,76.03
2017-11-14T07:27:24.805Z,75.84
2017-11-14T07:28:24.862Z,76.50
2017-11-14T07:30:17.862Z,77.92
2017-11-14T07:31:17.894Z,78.49
2017-11-14T07:33:10.868Z,79.44
2017-11-14T07:34:10.924Z,79.57
2017-11-14T07:36:04.434Z,80.90
2017-11-14T07:37:04.463Z,80.80
2017-11-14T07:38:57.462Z,81.27
2017-11-14T07:39:57.498Z,81.85
2017-11-14T07:41:50.473Z,80.99
2017-11-14T07:42:50.530Z,79.57
2017-11-14T07:44:43.528Z,79.76
2017-11-14T07:45:43.563Z,80.14
2017-11-14T07:47:36.539Z,79.38
2017-11-14T07:48:36.593Z,80.43
2017-11-14T07:50:29.607Z,80.99
2017-11-14T07:51:29.633Z,80.52
2017-11-14T07:53:22.660Z,80.52
2017-11-14T07:54:22.683Z,80.52
2017-11-14T07:56:15.652Z,80.33
2017-11-14T07:57:15.707Z,80.14
2017-11-14T07:59:08.708Z,79.85
2017-11-14T08:00:08.747Z,79.85
2017-11-14T08:02:01.723Z,80.43
2017-11-14T08:03:01.779Z,80.52
2017-11-14T08:04:54.779Z,80.14
2017-11-14T08:05:54.817Z,80.24
2017-11-14T08:07:47.796Z,81.18
2017-11-14T08:08:47.851Z,80.99
2017-11-14T08:10:40.847Z,81.09
2017-11-14T08:11:40.882Z,81.66
2017-11-14T08:13:33.879Z,81.94
2017-11-14T08:14:33.915Z,81.94
2017-11-14T08:16:26.890Z,83.17
2017-11-14T08:17:26.950Z,82.70
2017-11-14T08:19:19.943Z,83.22
2017-11-14T08:20:19.980Z,83.22
2017-11-14T08:22:12.957Z,83.69
2017-11-14T08:23:13.013Z,84.07
2017-11-14T08:25:06.057Z,83.40
2017-11-14T08:26:06.048Z,83.88
2017-11-14T08:27:59.028Z,83.88
2017-11-14T08:28:59.086Z,83.59
2017-11-14T08:30:52.085Z,83.31
2017-11-14T08:31:52.120Z,83.31
2017-11-14T08:33:45.117Z,83.59
2017-11-14T08:34:45.155Z,83.40
2017-11-14T08:36:38.640Z,83.59
2017-11-14T08:37:38.693Z,83.12
2017-11-14T08:39:31.693Z,82.74
2017-11-14T08:40:31.728Z,82.27
2017-11-14T08:42:24.711Z,82.32
2017-11-14T08:43:24.767Z,81.70
2017-11-14T08:45:17.764Z,81.09
2017-11-14T08:46:17.799Z,80.75
2017-11-14T08:48:10.773Z,80.75
2017-11-14T08:49:10.829Z,80.52
2017-11-14T08:51:03.826Z,80.18
2017-11-14T08:52:03.864Z,80.08
2017-11-14T08:53:56.862Z,80.56
2017-11-14T08:54:56.897Z,81.04
2017-11-14T08:56:49.882Z,81.13
2017-11-14T08:57:49.936Z,81.88
2017-11-14T08:59:42.936Z,81.88
2017-11-14T09:00:42.967Z,82.84
2017-11-14T09:02:35.943Z,84.45
2017-11-14T09:03:36.000Z,85.68
2017-11-14T09:05:28.999Z,86.16
2017-11-14T09:06:29.036Z,86.63
2017-11-14T09:08:22.013Z,87.43
2017-11-14T09:09:22.071Z,87.43
2017-11-14T09:11:15.070Z,87.34
2017-11-14T09:12:15.106Z,88.10
2017-11-14T09:14:08.102Z,89.05
2017-11-14T09:15:08.138Z,88.76
2017-11-14T09:17:01.117Z,89.53
2017-11-14T09:18:01.180Z,89.62
2017-11-14T09:19:54.170Z,90.38
2017-11-14T09:20:54.207Z,91.61
2017-11-14T09:22:47.192Z,91.14
2017-11-14T09:23:55.875Z,92.18
2017-11-14T09:25:40.246Z,92.37
2017-11-14T09:26:40.284Z,92.18
2017-11-14T09:28:33.260Z,92.18
2017-11-14T09:29:33.316Z,92.47
2017-11-14T09:31:33.953Z,93.23
2017-11-14T09:32:26.352Z,93.37
2017-11-14T09:34:19.351Z,94.89
2017-11-14T09:35:19.392Z,94.79
2017-11-14T09:37:12.365Z,96.03
2017-11-14T09:38:12.422Z,96.88
2017-11-14T09:40:05.420Z,96.50
2017-11-14T09:41:05.457Z,97.45
2017-11-14T09:42:58.434Z,98.12
2017-11-14T09:43:58.496Z,97.97
2017-11-14T09:45:51.499Z,98.64
2017-11-14T09:46:51.536Z,99.99
2017-11-14T09:48:44.513Z,99.99
2017-11-14T09:49:44.568Z,99.99
2017-11-14T09:51:37.571Z,99.99
2017-11-14T09:52:37.607Z,99.99
2017-11-14T09:54:30.606Z,99.99
2017-11-14T09:55:30.643Z,99.99
2017-11-14T09:57:23.620Z,99.99
2017-11-14T09:58:23.678Z,99.88
2017-11-14T10:00:16.681Z,99.99
2017-11-14T10:01:16.723Z,99.99
2017-11-14T10:03:09.700Z,99.99
2017-11-14T10:04:09.754Z,99.99
2017-11-14T10:06:02.756Z,99.99
2017-11-14T10:07:02.792Z,99.99
2017-11-14T10:08:55.776Z,99.99
2017-11-14T10:09:55.830Z,99.99
2017-11-14T10:11:48.828Z,99.99
2017-11-14T10:12:48.866Z,99.99
2017-11-14T10:14:41.867Z,99.99
2017-11-14T10:15:41.906Z,99.99
2017-11-14T10:17:34.888Z,99.99
2017-11-14T10:18:34.943Z,99.99
2017-11-14T10:20:27.947Z,99.99
2017-11-14T10:21:27.991Z,99.99
2017-11-14T10:23:20.968Z,99.99
2017-11-14T10:24:21.023Z,99.99
2017-11-14T10:26:14.022Z,99.99
2017-11-14T10:27:14.060Z,99.99
2017-11-14T10:29:07.037Z,99.99
2017-11-14T10:30:07.095Z,99.99
2017-11-14T10:32:00.607Z,99.99
2017-11-14T10:33:00.638Z,99.99
2017-11-14T10:34:53.642Z,99.99
2017-11-14T10:35:53.680Z,99.99
2017-11-14T10:37:46.660Z,99.99
2017-11-14T10:38:46.718Z,99.99
2017-11-14T10:40:39.727Z,99.99
2017-11-14T10:41:39.755Z,99.99
2017-11-14T10:43:32.742Z,99.99
2017-11-14T10:44:32.804Z,99.99
2017-11-14T10:46:25.797Z,99.99
2017-11-14T10:47:25.835Z,99.99
2017-11-14T10:49:18.821Z,99.99
2017-11-14T10:50:18.877Z,99.99
2017-11-14T10:52:11.885Z,99.99
2017-11-14T10:53:11.923Z,99.99
2017-11-14T10:55:04.921Z,99.99
2017-11-14T10:56:04.965Z,99.99
2017-11-14T10:57:57.936Z,99.99
2017-11-14T10:58:57.996Z,99.99
2017-11-14T11:00:50.992Z,99.99
2017-11-14T11:01:51.032Z,99.99
2017-11-14T11:03:44.012Z,99.99
2017-11-14T11:04:44.076Z,99.99
2017-11-14T11:06:37.069Z,99.99
2017-11-14T11:07:37.104Z,99.99
2017-11-14T11:09:30.088Z,99.99
2017-11-14T11:10:30.142Z,99.99
2017-11-14T11:12:23.146Z,99.99
2017-11-14T11:13:23.178Z,99.99
2017-11-14T11:15:16.181Z,99.99
2017-11-14T11:16:16.216Z,99.99
2017-11-14T11:18:09.204Z,99.99
2017-11-14T11:19:09.263Z,99.99
2017-11-14T11:21:02.263Z,99.99
2017-11-14T11:22:02.299Z,99.99
2017-11-14T11:23:55.285Z,99.99
2017-11-14T11:24:55.338Z,99.99
2017-11-14T11:26:48.344Z,99.99
2017-11-14T11:27:48.378Z,99.99
2017-11-14T11:29:41.356Z,99.99
2017-11-14T11:30:41.415Z,99.99
2017-11-14T11:32:34.924Z,99.99
2017-11-14T11:33:34.965Z,99.99
2017-11-14T11:35:27.965Z,99.99
2017-11-14T11:36:28.004Z,99.99
2017-11-14T11:38:20.983Z,99.99
2017-11-14T11:39:21.039Z,99.99
2017-11-14T11:41:14.037Z,99.99
2017-11-14T11:42:14.075Z,99.99
2017-11-14T11:44:07.060Z,99.99
2017-11-14T11:45:07.116Z,99.99
2017-11-14T11:47:00.119Z,99.99
2017-11-14T11:48:00.159Z,99.99
2017-11-14T11:49:53.179Z,99.99
2017-11-14T11:50:53.197Z,99.99
2017-11-14T11:52:46.201Z,99.99
2017-11-14T11:53:46.241Z,99.99
2017-11-14T11:55:39.239Z,99.99
2017-11-14T11:56:39.283Z,99.99
2017-11-14T11:58:32.262Z,99.99
2017-11-14T11:59:32.315Z,99.99
2017-11-14T12:01:25.314Z,99.99
2017-11-14T12:02:25.353Z,99.99
2017-11-14T12:04:18.337Z,99.99
2017-11-14T12:05:18.392Z,99.99
2017-11-14T12:07:11.400Z,99.99
2017-11-14T12:08:11.437Z,99.99
2017-11-14T12:10:04.447Z,99.99
2017-11-14T12:11:04.485Z,99.99
2017-11-14T12:12:57.470Z,99.99
2017-11-14T12:13:57.524Z,99.99
2017-11-14T12:15:50.526Z,99.99
2017-11-14T12:16:50.564Z,99.99
2017-11-14T12:18:43.543Z,99.99
2017-11-14T12:19:43.601Z,99.99
2017-11-14T12:21:36.612Z,99.99
2017-11-14T12:22:36.652Z,99.99
2017-11-14T12:24:29.640Z,99.99
2017-11-14T12:25:29.701Z,99.99
2017-11-14T12:27:22.712Z,99.99
2017-11-14T12:28:22.739Z,99.99
2017-11-14T12:30:15.741Z,99.99
2017-11-14T12:31:15.783Z,99.99
2017-11-14T12:33:08.759Z,99.99
2017-11-14T12:34:08.822Z,99.99
2017-11-14T12:36:01.820Z,99.99
2017-11-14T12:37:01.861Z,99.99
2017-11-14T12:38:54.838Z,99.99
2017-11-14T12:39:54.897Z,99.99
2017-11-14T12:41:47.902Z,99.99
2017-11-14T12:42:47.938Z,99.99
2017-11-14T12:44:40.926Z,99.99
2017-11-14T12:45:40.982Z,99.99
2017-11-14T12:47:33.988Z,99.99
2017-11-14T12:48:34.022Z,99.99
2017-11-14T12:50:27.039Z,99.99
2017-11-14T12:51:27.058Z,99.99
2017-11-14T12:53:20.044Z,99.99
2017-11-14T12:54:20.100Z,99.99
2017-11-14T12:56:13.108Z,99.99
2017-11-14T12:57:13.145Z,99.99
2017-11-14T12:59:06.130Z,99.99
2017-11-14T13:00:06.187Z,99.99
2017-11-14T13:01:59.202Z,99.99
2017-11-14T13:02:59.224Z,99.99
2017-11-14T13:04:52.206Z,99.99
2017-11-14T13:05:52.267Z,99.99
2017-11-14T13:07:45.268Z,99.99
2017-11-14T13:08:45.304Z,99.99
2017-11-14T13:10:38.317Z,99.99
2017-11-14T13:11:38.346Z,99.99
2017-11-14T13:13:31.342Z,99.99
2017-11-14T13:14:31.386Z,99.99
2017-11-14T13:16:24.388Z,99.99
2017-11-14T13:17:24.426Z,99.99
2017-11-14T13:19:17.412Z,99.99
2017-11-14T13:20:17.466Z,99.99
2017-11-14T13:22:10.523Z,99.99
2017-11-14T13:23:10.532Z,99.99
2017-11-14T13:25:03.488Z,99.99
2017-11-14T13:26:03.543Z,99.99
2017-11-14T13:27:56.542Z,99.99
2017-11-14T13:28:56.583Z,99.99
2017-11-14T13:30:49.583Z,99.99
2017-11-14T13:31:49.621Z,99.99
2017-11-14T13:33:42.607Z,99.99
2017-11-14T13:34:42.662Z,99.99
2017-11-14T13:36:35.668Z,99.99
2017-11-14T13:37:35.708Z,99.99
2017-11-14T13:39:28.693Z,99.99
2017-11-14T13:40:28.760Z,99.99
2017-11-14T13:42:21.752Z,99.99
2017-11-14T13:43:21.791Z,99.99
2017-11-14T13:45:14.776Z,99.99
2017-11-14T13:46:14.834Z,99.99
2017-11-14T13:48:07.837Z,99.99
2017-11-14T13:49:07.884Z,99.99
2017-11-14T13:51:00.880Z,99.99
2017-11-14T13:52:00.916Z,99.99
2017-11-14T13:53:53.954Z,99.99
2017-11-14T13:54:53.957Z,99.99
2017-11-14T13:56:46.957Z,99.99
2017-11-14T13:57:47.012Z,99.99
2017-11-14T13:59:39.981Z,99.99
2017-11-14T14:00:40.037Z,99.99
2017-11-14T14:02:33.040Z,99.99
2017-11-14T14:03:33.077Z,99.99
2017-11-14T14:05:26.076Z,99.99
2017-11-14T14:06:26.118Z,99.99
2017-11-14T14:08:19.137Z,99.99
2017-11-14T14:09:19.162Z,99.99
2017-11-14T14:11:12.165Z,99.99
2017-11-14T14:12:12.206Z,99.99
2017-11-14T14:14:05.188Z,99.99
2017-11-14T14:15:05.254Z,99.99
2017-11-14T14:16:58.248Z,99.99
2017-11-14T14:17:58.287Z,99.99
2017-11-14T14:19:51.271Z,99.99
2017-11-14T14:20:51.326Z,99.99
2017-11-14T14:22:44.328Z,99.99
2017-11-14T14:23:44.366Z,99.99
2017-11-14T14:25:37.352Z,99.99
2017-11-14T14:26:37.409Z,99.99
2017-11-14T14:28:30.453Z,99.99
2017-11-14T14:29:30.452Z,99.99
2017-11-14T14:31:23.462Z,99.99
2017-11-14T14:32:23.499Z,99.99
2017-11-14T14:34:16.487Z,99.99
2017-11-14T14:35:16.552Z,99.99
2017-11-14T14:37:09.578Z,99.99
2017-11-14T14:38:09.585Z,99.99
2017-11-14T14:40:02.570Z,99.99
2017-11-14T14:41:02.624Z,99.99
2017-11-14T14:42:55.632Z,99.99
2017-11-14T14:43:55.664Z,99.99
2017-11-14T14:45:48.655Z,99.99
2017-11-14T14:46:48.712Z,99.99
2017-11-14T14:48:41.747Z,99.99
2017-11-14T14:49:41.781Z,99.99
2017-11-14T14:51:34.780Z,99.99
2017-11-14T14:52:34.820Z,99.99
2017-11-14T14:54:27.810Z,99.99
2017-11-14T14:55:27.861Z,99.99
2017-11-14T14:57:20.862Z,99.99
2017-11-14T14:58:20.925Z,99.99
2017-11-14T15:00:13.876Z,99.99
2017-11-14T15:01:13.935Z,99.99
2017-11-14T15:03:06.935Z,99.99
2017-11-14T15:04:06.977Z,99.99
2017-11-14T15:05:59.958Z,99.99
2017-11-14T15:07:00.011Z,99.99
2017-11-14T15:08:53.016Z,99.99
2017-11-14T15:09:53.049Z,99.99
2017-11-14T15:11:46.594Z,99.99
2017-11-14T15:12:46.592Z,99.99
2017-11-14T15:14:40.086Z,99.99
2017-11-14T15:15:40.138Z,99.99
2017-11-14T15:17:33.197Z,99.99
2017-11-14T15:18:33.200Z,99.99
2017-11-14T15:20:26.196Z,99.99
2017-11-14T15:21:26.286Z,99.99
2017-11-14T15:23:19.766Z,99.99
2017-11-14T15:24:19.796Z,99.99
2017-11-14T15:26:12.769Z,99.99
2017-11-14T15:27:12.824Z,99.99
2017-11-14T15:29:07.346Z,99.99
2017-11-14T15:30:07.385Z,99.99
2017-11-14T15:32:01.077Z,99.99
2017-11-14T15:33:00.937Z,99.99
2017-11-14T15:34:54.441Z,99.99
2017-11-14T15:35:54.470Z,99.99
2017-11-14T15:37:50.011Z,99.99
2017-11-14T15:38:50.036Z,99.99
2017-11-14T15:40:43.033Z,99.99
2017-11-14T15:41:43.099Z,99.99
2017-11-14T15:43:36.082Z,99.99
2017-11-14T15:44:36.117Z,99.99
2017-11-14T15:46:29.087Z,99.99
2017-11-14T15:47:29.152Z,99.99
2017-11-14T15:49:22.149Z,99.99
2017-11-14T15:50:22.192Z,99.99
2017-11-14T15:52:15.188Z,99.99
2017-11-14T15:53:15.233Z,99.99
2017-11-14T15:55:08.214Z,99.99
2017-11-14T15:56:08.411Z,99.99
2017-11-14T15:58:01.297Z,99.99
2017-11-14T15:59:01.323Z,99.99
2017-11-14T16:00:54.815Z,99.99
2017-11-14T16:01:54.900Z,99.99
2017-11-14T16:03:48.412Z,99.99
2017-11-14T16:04:48.425Z,99.99
2017-11-14T16:06:41.393Z,99.99
2017-11-14T16:07:41.461Z,99.99
2017-11-14T16:09:34.464Z,99.99
2017-11-14T16:10:34.494Z,99.99
2017-11-14T16:12:27.499Z,99.99
2017-11-14T16:13:27.536Z,99.99
2017-11-14T16:15:20.514Z,99.99
2017-11-14T16:16:20.571Z,99.99
2017-11-14T16:18:13.581Z,99.99
2017-11-14T16:19:13.617Z,99.99
2017-11-14T16:21:06.601Z,99.99
2017-11-14T16:22:06.656Z,99.99
2017-11-14T16:23:59.654Z,99.99
2017-11-14T16:24:59.693Z,99.99
2017-11-14T16:26:52.692Z,99.99
2017-11-14T16:27:52.729Z,99.99
2017-11-14T16:29:45.715Z,99.99
2017-11-14T16:30:45.774Z,99.99
2017-11-14T16:32:38.773Z,99.99
2017-11-14T16:33:38.810Z,99.99
2017-11-14T16:35:31.787Z,99.99
2017-11-14T16:36:31.846Z,99.99
2017-11-14T16:38:24.844Z,99.99
2017-11-14T16:39:24.886Z,99.99
2017-11-14T16:41:17.865Z,99.99
2017-11-14T16:42:17.919Z,99.99
2017-11-14T16:44:10.964Z,99.99
2017-11-14T16:45:10.964Z,99.99
2017-11-14T16:47:03.955Z,99.99
2017-11-14T16:48:03.993Z,99.99
2017-11-14T16:49:56.974Z,99.99
2017-11-14T16:50:57.031Z,99.99
2017-11-14T16:52:50.031Z,99.99
2017-11-14T16:53:50.065Z,99.99
2017-11-14T16:55:43.050Z,99.99
2017-11-14T16:56:43.103Z,99.99
2017-11-14T16:58:36.113Z,99.99
2017-11-14T16:59:36.144Z,99.99
2017-11-14T17:01:29.137Z,99.99
2017-11-14T17:02:29.183Z,99.99
2017-11-14T17:04:22.185Z,99.99
2017-11-14T17:05:22.224Z,99.99
2017-11-14T17:07:15.226Z,99.99
2017-11-14T17:08:15.289Z,99.99
2017-11-14T17:10:08.248Z,99.99
2017-11-14T17:11:08.300Z,99.99
2017-11-14T17:13:01.303Z,99.99
2017-11-14T17:14:01.339Z,99.99
2017-11-14T17:15:54.324Z,99.99
2017-11-14T17:16:54.384Z,99.99
2017-11-14T17:18:47.380Z,99.99
2017-11-14T17:19:47.419Z,99.99
2017-11-14T17:21:40.401Z,99.99
2017-11-14T17:22:40.456Z,99.99
2017-11-14T17:24:33.455Z,99.99
2017-11-14T17:25:33.493Z,99.99
2017-11-14T17:27:26.495Z,99.99
2017-11-14T17:28:26.541Z,99.99
2017-11-14T17:30:19.512Z,99.99
2017-11-14T17:31:19.574Z,99.99
2017-11-14T17:33:12.572Z,99.99
2017-11-14T17:34:12.608Z,99.99
2017-11-14T17:36:05.594Z,99.99
2017-11-14T17:37:05.652Z,99.99
2017-11-14T17:38:58.649Z,99.99
2017-11-14T17:39:58.695Z,99.99
2017-11-14T17:41:51.664Z,99.99
2017-11-14T17:42:51.723Z,99.99
2017-11-14T17:44:44.727Z,99.99
2017-11-14T17:45:44.766Z,99.64
2017-11-14T17:47:37.770Z,99.45
2017-11-14T17:48:37.806Z,98.88
2017-11-14T17:50:30.829Z,98.69
2017-11-14T17:51:30.877Z,98.88
2017-11-14T17:53:23.898Z,97.93
2017-11-14T17:54:23.907Z,97.55
2017-11-14T17:56:16.892Z,96.60
2017-11-14T17:57:16.947Z,96.22
2017-11-14T17:59:09.950Z,94.70
2017-11-14T18:00:09.983Z,93.37
2017-11-14T18:02:02.971Z,92.51
2017-11-14T18:03:03.022Z,91.56
2017-11-14T18:04:56.028Z,91.18
2017-11-14T18:05:56.065Z,91.28
2017-11-14T18:07:49.115Z,90.33
2017-11-14T18:08:49.101Z,89.75
2017-11-14T18:10:42.087Z,88.71
2017-11-14T18:11:42.146Z,87.85
2017-11-14T18:13:35.229Z,87.47
2017-11-14T18:14:35.201Z,86.99
2017-11-14T18:16:28.170Z,85.95
2017-11-14T18:17:28.235Z,85.76
2017-11-14T18:19:21.227Z,85.10
2017-11-14T18:20:21.265Z,84.33
2017-11-14T18:22:14.254Z,83.58
2017-11-14T18:23:14.311Z,82.62
2017-11-14T18:25:07.320Z,82.62
2017-11-14T18:26:07.361Z,82.05
2017-11-14T18:28:00.356Z,81.10
2017-11-14T18:29:00.401Z,79.77
2017-11-14T18:30:53.376Z,79.77
2017-11-14T18:31:53.431Z,79.49
2017-11-14T18:33:46.429Z,78.06